KMTJ/MTJ METAR and TAF weather

Enter ICAO airport designator
Station Type Date Time Source
KMTJ METAR 2019/04/25 15:53 UTC NOAA

KMTJ 251553Z AUTO 33005KT 10SM CLR 16/01 A3020 RMK AO2 SLP172 T01560006


Station Type Date Time Source
KMTJ Decoded METAR 2019/04/25 15:53 UTC NOAA

MONTROSE REGIONAL AIRPORT, CO, United States (KMTJ) 38-30N 107-54W 1750M
Apr 25, 2019 - 11:53 AM EDT / 2019.04.25 1553 UTC
Wind: from the NNW (330 degrees) at 6 MPH (5 KT):0
Visibility: 10 mile(s):0
Sky conditions: clear
Temperature: 60.1 F (15.6 C)
Dew Point: 33.1 F (0.6 C)
Relative Humidity: 36%
Pressure (altimeter): 30.2 in. Hg (1022 hPa)
ob: KMTJ 251553Z AUTO 33005KT 10SM CLR 16/01 A3020 RMK AO2 SLP172 T01560006
cycle: 16

Station Type Date Time Source
KMTJ TAF 2019/04/25 12:39 UTC NOAA

TAF KMTJ 251136Z 2512/2612 15006KT P6SM FEW080 FEW200
FM251900 33005KT P6SM FEW090 FEW250
FM260100 26005KT P6SM FEW100 SCT250
FM260400 17005KT P6SM FEW100 SCT250

Example: see airport list